Aidamar — ICSJ — position and weather

sailwx.info

Track history (hours):
 
Tides and Currents Weather Stations Pressure Air Temp Water Temp Dewpoint Dewpoint Depression Visibility Wind Speed Wind Dir Waves Ship Positions

Aidamar

Last reported at 2015-Jul-05 07:20 UTC. Time now 2015-Jul-05 13:16 UTC.
Position N 56°19' E 017°22'.

Length 253 m; draft 7.3 m.

Type: Passenger vessel. MMSI: 247312900.

Date/timePositionNaut miles runAvg speedWind from/ knotsBaromVisibWave heightAir tempDewpointWater temp
2015-Jul-05 07:20N 56°19' E 017°22'4415.6
2015-Jul-05 04:30N 55°54' E 016°16'1715.5
2015-Jul-05 03:23N 55°46' E 015°49'1415.7
2015-Jul-05 02:28N 55°39' E 015°27'1415.8
2015-Jul-05 01:33N 55°32' E 015°04'1615.8
2015-Jul-05 00:33N 55°24' E 014°40'1615.8
2015-Jul-04 23:33N 55°12' E 014°23'1616.0
2015-Jul-04 22:34N 55°01' E 014°03'1615.6
2015-Jul-04 21:33N 54°55' E 013°37'1615.7
2015-Jul-04 20:33N 54°50' E 013°11'1515.5
2015-Jul-04 19:33N 54°46' E 012°46'1515.2
2015-Jul-04 18:33N 54°37' E 012°24'1414.6
2015-Jul-04 17:33N 54°25' E 012°10'1413.5
2015-Jul-04 16:33N 54°12' E 012°05'1 0.6
2015-Jul-04 14:32N 54°11' E 012°06'0 0.0
2015-Jul-04 13:14N 54°11' E 012°06'0 0.0
2015-Jul-04 12:26N 54°11' E 012°06'0 0.0
2015-Jul-04 10:29N 54°11' E 012°06'0 0.0
2015-Jul-04 09:32N 54°11' E 012°06'0 0.0
2015-Jul-04 08:29N 54°11' E 012°06'0 0.0
2015-Jul-04 07:29N 54°11' E 012°06'0 0.0
2015-Jul-04 06:32N 54°11' E 012°06'0 0.0
2015-Jul-04 05:17N 54°11' E 012°06'1 1.4
2015-Jul-04 04:33N 54°10' E 012°06'1110.7
2015-Jul-04 03:32N 54°20' E 011°59'1212.3
2015-Jul-04 02:34N 54°29' E 012°11'1515.2
2015-Jul-04 01:33N 54°41' E 012°27'1615.9
2015-Jul-04 00:33N 54°49' E 012°51'1616.1
2015-Jul-03 23:33N 54°56' E 013°17'1616.3
2015-Jul-03 22:34N 55°01' E 013°44'1616.0
2015-Jul-03 21:34N 55°07' E 014°09'1616.2
2015-Jul-03 20:33N 55°19' E 014°28'1616.1
2015-Jul-03 19:33N 55°29' E 014°50'1313.0
2015-Jul-03 18:33N 55°35' E 015°11'1212.4
2015-Jul-03 17:33N 55°43' E 015°27'1515.5
2015-Jul-03 16:33N 55°51' E 015°51'8214.9
2015-Jul-03 11:06N 56°57' E 017°18'1016.0
2015-Jul-03 10:27N 57°06' E 017°25'1416.0
2015-Jul-03 09:33N 57°20' E 017°34'2 2.5
2015-Jul-03 08:33N 57°22' E 017°35'1414.4
2015-Jul-03 07:33N 57°35' E 017°48'2316.4
2015-Jul-03 06:10N 57°54' E 018°10'11116.0
2015-Jul-02 23:14N 59°30' E 019°58'52 9.1
2015-Jul-02 17:30N 59°22' E 018°16'6 6.1
2015-Jul-02 16:33N 59°19' E 018°06'0 0.0
2015-Jul-02 15:32N 59°19' E 018°06'0 0.0
2015-Jul-02 14:29N 59°19' E 018°06'0 0.0
2015-Jul-02 13:32N 59°19' E 018°06'0 0.0
2015-Jul-02 12:34N 59°19' E 018°06'0 0.0
2015-Jul-02 11:31N 59°19' E 018°06'0 0.0
2015-Jul-02 10:31N 59°19' E 018°06'0 0.0
2015-Jul-02 09:31N 59°19' E 018°06'0 0.0
2015-Jul-02 08:31N 59°19' E 018°06'0 0.0
2015-Jul-02 07:33N 59°19' E 018°06'7 6.8
2015-Jul-02 06:32N 59°23' E 018°18'8911.0
2015-Jul-01 22:24N 59°33' E 021°12'1315.9
2015-Jul-01 21:33N 59°31' E 021°38'1715.4
2015-Jul-01 20:26N 59°29' E 022°12'1315.3
2015-Jul-01 19:33N 59°30' E 022°38'1615.6
2015-Jul-01 18:33N 59°35' E 023°08'1515.5
2015-Jul-01 17:33N 59°39' E 023°37'1815.5
2015-Jul-01 16:25N 59°46' E 024°10'1415.8
2015-Jul-01 15:33N 59°51' E 024°35'156 7.4
2015-Jun-30 18:23N 59°59' E 029°45'810.3
2015-Jun-30 17:33N 59°55' E 030°01'5 5.4
2015-Jun-30 16:32N 59°57' E 030°11'0 0.0
2015-Jun-30 15:32N 59°57' E 030°11'0 0.0
2015-Jun-30 14:33N 59°57' E 030°11'0 0.0
2015-Jun-30 13:33N 59°57' E 030°11'0 0.0
2015-Jun-30 12:33N 59°57' E 030°11'0 0.0
2015-Jun-30 11:33N 59°57' E 030°11'0 0.0
2015-Jun-30 10:31N 59°57' E 030°11'0 0.0
2015-Jun-30 09:32N 59°57' E 030°11'0 0.0
2015-Jun-30 08:32N 59°57' E 030°11'0 0.0
2015-Jun-30 07:32N 59°57' E 030°11'0 0.0
2015-Jun-30 06:34N 59°57' E 030°11'0 0.0
2015-Jun-30 05:31N 59°57' E 030°11'0 0.0
2015-Jun-30 04:32N 59°57' E 030°11'4 4.3
2015-Jun-30 03:33N 59°56' E 030°03'1010.2
2015-Jun-30 02:33N 59°59' E 029°44'1211.7
2015-Jun-30 01:33N 60°02' E 029°21'5614.1
2015-Jun-29 21:34N 60°05' E 027°29'1615.6
2015-Jun-29 20:32N 59°58' E 026°60'1616.2
2015-Jun-29 19:33N 59°58' E 026°29'1615.8
2015-Jun-29 18:33N 59°53' E 025°59'1615.8
2015-Jun-29 17:33N 59°49' E 025°29'1615.9
2015-Jun-29 16:33N 59°44' E 024°58'1313.3
2015-Jun-29 15:34N 59°33' E 024°44'6 0.6
2015-Jun-29 05:32N 59°27' E 024°46'5 5.5
2015-Jun-29 04:34N 59°30' E 024°37'1414.4
2015-Jun-29 03:33N 59°30' E 024°09'1110.5
2015-Jun-29 02:33N 59°30' E 023°48'9 9.2
2015-Jun-29 01:33N 59°30' E 023°30'9 9.1
2015-Jun-29 00:33N 59°30' E 023°12'1312.7
2015-Jun-28 23:33N 59°25' E 022°48'1616.0
2015-Jun-28 22:33N 59°18' E 022°21'1616.1
2015-Jun-28 21:34N 59°09' E 021°55'1616.1
2015-Jun-28 20:34N 58°56' E 021°35'1715.9
2015-Jun-28 19:28N 58°42' E 021°15'26515.4
2015-Jun-28 02:19N 55°39' E 015°24'1215.8
2015-Jun-28 01:33N 55°33' E 015°05'1615.7
2015-Jun-28 00:33N 55°24' E 014°42'1615.6
2015-Jun-27 23:33N 55°12' E 014°25'1615.6
2015-Jun-27 22:33N 55°01' E 014°06'4815.5
2015-Jun-27 19:29N 54°46' E 012°47'1515.4
2015-Jun-27 18:30N 54°37' E 012°26'1415.2
2015-Jun-27 17:33N 54°25' E 012°12'1413.9
2015-Jun-27 16:33N 54°12' E 012°05'1 1.2
2015-Jun-27 15:22N 54°11' E 012°06'0 0.0
2015-Jun-27 14:31N 54°11' E 012°06'0 0.0
2015-Jun-27 13:31N 54°11' E 012°06'0 0.0
2015-Jun-27 12:25N 54°11' E 012°06'0 0.0
2015-Jun-27 11:31N 54°11' E 012°06'0 0.0
2015-Jun-27 10:25N 54°11' E 012°06'0 0.0
2015-Jun-27 09:25N 54°11' E 012°06'0 0.0
2015-Jun-27 08:31N 54°11' E 012°06'0 0.0
2015-Jun-27 07:29N 54°11' E 012°06'0 0.0
2015-Jun-27 06:21N 54°11' E 012°06'0 0.0
2015-Jun-27 05:18N 54°11' E 012°06'0 0.1
2015-Jun-27 04:33N 54°11' E 012°06'4 4.3
2015-Jun-27 03:33N 54°14' E 012°03'1110.9
2015-Jun-27 02:34N 54°25' E 011°59'1414.1
2015-Jun-27 01:33N 54°35' E 012°16'6715.3
2015-Jun-26 21:12N 55°03' E 014°02'1015.7
2015-Jun-26 20:33N 55°10' E 014°13'1616.0
2015-Jun-26 19:33N 55°24' E 014°29'1515.4
2015-Jun-26 18:33N 55°32' E 014°52'1615.6
2015-Jun-26 17:33N 55°39' E 015°16'1515.4
2015-Jun-26 16:33N 55°47' E 015°40'1915.8
2015-Jun-26 15:22N 55°56' E 016°09'214 9.8
2015-Jun-25 17:32N 59°20' E 018°12'3 3.5
2015-Jun-25 16:33N 59°19' E 018°06'0 0.0
2015-Jun-25 15:33N 59°19' E 018°06'0 0.0
2015-Jun-25 14:33N 59°19' E 018°06'0 0.0
2015-Jun-25 13:28N 59°19' E 018°06'0 0.0
2015-Jun-25 12:33N 59°19' E 018°06'0 0.0
2015-Jun-25 11:33N 59°19' E 018°06'0 0.0
2015-Jun-25 10:33N 59°19' E 018°06'0 0.0
2015-Jun-25 09:33N 59°19' E 018°06'0 0.0
2015-Jun-25 08:33N 59°19' E 018°06'0 0.0
2015-Jun-25 07:33N 59°19' E 018°06'  
Track history (hours):
 
Tides and Currents Weather Stations Pressure Air Temp Water Temp Dewpoint Dewpoint Depression Visibility Wind Speed Wind Dir Waves Ship Positions

Aidamar

Last reported at 2015-Jul-05 07:20 UTC. Time now 2015-Jul-05 13:17 UTC.
Position N 56°19' E 017°22'.

Length 253 m; draft 7.3 m.

Type: Passenger vessel. MMSI: 247312900.

Date/timePositionNaut miles runAvg speedWind from/ knotsBaromVisibWave heightAir tempDewpointWater temp
2015-Jul-05 07:20N 56°19' E 017°22'4415.6
2015-Jul-05 04:30N 55°54' E 016°16'1715.5
2015-Jul-05 03:23N 55°46' E 015°49'1415.7
2015-Jul-05 02:28N 55°39' E 015°27'1415.8
2015-Jul-05 01:33N 55°32' E 015°04'1615.8
2015-Jul-05 00:33N 55°24' E 014°40'1615.8
2015-Jul-04 23:33N 55°12' E 014°23'1616.0
2015-Jul-04 22:34N 55°01' E 014°03'1615.6
2015-Jul-04 21:33N 54°55' E 013°37'1615.7
2015-Jul-04 20:33N 54°50' E 013°11'1515.5
2015-Jul-04 19:33N 54°46' E 012°46'1515.2
2015-Jul-04 18:33N 54°37' E 012°24'1414.6
2015-Jul-04 17:33N 54°25' E 012°10'1413.5
2015-Jul-04 16:33N 54°12' E 012°05'1 0.6
2015-Jul-04 14:32N 54°11' E 012°06'0 0.0
2015-Jul-04 13:14N 54°11' E 012°06'0 0.0
2015-Jul-04 12:26N 54°11' E 012°06'0 0.0
2015-Jul-04 10:29N 54°11' E 012°06'0 0.0
2015-Jul-04 09:32N 54°11' E 012°06'0 0.0
2015-Jul-04 08:29N 54°11' E 012°06'0 0.0
2015-Jul-04 07:29N 54°11' E 012°06'0 0.0
2015-Jul-04 06:32N 54°11' E 012°06'0 0.0
2015-Jul-04 05:17N 54°11' E 012°06'1 1.4
2015-Jul-04 04:33N 54°10' E 012°06'1110.7
2015-Jul-04 03:32N 54°20' E 011°59'1212.3
2015-Jul-04 02:34N 54°29' E 012°11'1515.2
2015-Jul-04 01:33N 54°41' E 012°27'1615.9
2015-Jul-04 00:33N 54°49' E 012°51'1616.1
2015-Jul-03 23:33N 54°56' E 013°17'1616.3
2015-Jul-03 22:34N 55°01' E 013°44'1616.0
2015-Jul-03 21:34N 55°07' E 014°09'1616.2
2015-Jul-03 20:33N 55°19' E 014°28'1616.1
2015-Jul-03 19:33N 55°29' E 014°50'1313.0
2015-Jul-03 18:33N 55°35' E 015°11'1212.4
2015-Jul-03 17:33N 55°43' E 015°27'1515.5
2015-Jul-03 16:33N 55°51' E 015°51'8214.9
2015-Jul-03 11:06N 56°57' E 017°18'1016.0
2015-Jul-03 10:27N 57°06' E 017°25'1416.0
2015-Jul-03 09:33N 57°20' E 017°34'2 2.5
2015-Jul-03 08:33N 57°22' E 017°35'1414.4
2015-Jul-03 07:33N 57°35' E 017°48'2316.4
2015-Jul-03 06:10N 57°54' E 018°10'11116.0
2015-Jul-02 23:14N 59°30' E 019°58'52 9.1
2015-Jul-02 17:30N 59°22' E 018°16'6 6.1
2015-Jul-02 16:33N 59°19' E 018°06'0 0.0
2015-Jul-02 15:32N 59°19' E 018°06'0 0.0
2015-Jul-02 14:29N 59°19' E 018°06'0 0.0
2015-Jul-02 13:32N 59°19' E 018°06'0 0.0
2015-Jul-02 12:34N 59°19' E 018°06'0 0.0
2015-Jul-02 11:31N 59°19' E 018°06'0 0.0
2015-Jul-02 10:31N 59°19' E 018°06'0 0.0
2015-Jul-02 09:31N 59°19' E 018°06'0 0.0
2015-Jul-02 08:31N 59°19' E 018°06'0 0.0
2015-Jul-02 07:33N 59°19' E 018°06'7 6.8
2015-Jul-02 06:32N 59°23' E 018°18'8911.0
2015-Jul-01 22:24N 59°33' E 021°12'1315.9
2015-Jul-01 21:33N 59°31' E 021°38'1715.4
2015-Jul-01 20:26N 59°29' E 022°12'1315.3
2015-Jul-01 19:33N 59°30' E 022°38'1615.6
2015-Jul-01 18:33N 59°35' E 023°08'1515.5
2015-Jul-01 17:33N 59°39' E 023°37'1815.5
2015-Jul-01 16:25N 59°46' E 024°10'1415.8
2015-Jul-01 15:33N 59°51' E 024°35'156 7.4
2015-Jun-30 18:23N 59°59' E 029°45'810.3
2015-Jun-30 17:33N 59°55' E 030°01'5 5.4
2015-Jun-30 16:32N 59°57' E 030°11'0 0.0
2015-Jun-30 15:32N 59°57' E 030°11'0 0.0
2015-Jun-30 14:33N 59°57' E 030°11'0 0.0
2015-Jun-30 13:33N 59°57' E 030°11'0 0.0
2015-Jun-30 12:33N 59°57' E 030°11'0 0.0
2015-Jun-30 11:33N 59°57' E 030°11'0 0.0
2015-Jun-30 10:31N 59°57' E 030°11'0 0.0
2015-Jun-30 09:32N 59°57' E 030°11'0 0.0
2015-Jun-30 08:32N 59°57' E 030°11'0 0.0
2015-Jun-30 07:32N 59°57' E 030°11'0 0.0
2015-Jun-30 06:34N 59°57' E 030°11'0 0.0
2015-Jun-30 05:31N 59°57' E 030°11'0 0.0
2015-Jun-30 04:32N 59°57' E 030°11'4 4.3
2015-Jun-30 03:33N 59°56' E 030°03'1010.2
2015-Jun-30 02:33N 59°59' E 029°44'1211.7
2015-Jun-30 01:33N 60°02' E 029°21'5614.1
2015-Jun-29 21:34N 60°05' E 027°29'1615.6
2015-Jun-29 20:32N 59°58' E 026°60'1616.2
2015-Jun-29 19:33N 59°58' E 026°29'1615.8
2015-Jun-29 18:33N 59°53' E 025°59'1615.8
2015-Jun-29 17:33N 59°49' E 025°29'1615.9
2015-Jun-29 16:33N 59°44' E 024°58'1313.3
2015-Jun-29 15:34N 59°33' E 024°44'6 0.6
2015-Jun-29 05:32N 59°27' E 024°46'5 5.5
2015-Jun-29 04:34N 59°30' E 024°37'1414.4
2015-Jun-29 03:33N 59°30' E 024°09'1110.5
2015-Jun-29 02:33N 59°30' E 023°48'9 9.2
2015-Jun-29 01:33N 59°30' E 023°30'9 9.1
2015-Jun-29 00:33N 59°30' E 023°12'1312.7
2015-Jun-28 23:33N 59°25' E 022°48'1616.0
2015-Jun-28 22:33N 59°18' E 022°21'1616.1
2015-Jun-28 21:34N 59°09' E 021°55'1616.1
2015-Jun-28 20:34N 58°56' E 021°35'1715.9
2015-Jun-28 19:28N 58°42' E 021°15'26515.4
2015-Jun-28 02:19N 55°39' E 015°24'1215.8
2015-Jun-28 01:33N 55°33' E 015°05'1615.7
2015-Jun-28 00:33N 55°24' E 014°42'1615.6
2015-Jun-27 23:33N 55°12' E 014°25'1615.6
2015-Jun-27 22:33N 55°01' E 014°06'4815.5
2015-Jun-27 19:29N 54°46' E 012°47'1515.4
2015-Jun-27 18:30N 54°37' E 012°26'1415.2
2015-Jun-27 17:33N 54°25' E 012°12'1413.9
2015-Jun-27 16:33N 54°12' E 012°05'1 1.2
2015-Jun-27 15:22N 54°11' E 012°06'0 0.0
2015-Jun-27 14:31N 54°11' E 012°06'0 0.0
2015-Jun-27 13:31N 54°11' E 012°06'0 0.0
2015-Jun-27 12:25N 54°11' E 012°06'0 0.0
2015-Jun-27 11:31N 54°11' E 012°06'0 0.0
2015-Jun-27 10:25N 54°11' E 012°06'0 0.0
2015-Jun-27 09:25N 54°11' E 012°06'0 0.0
2015-Jun-27 08:31N 54°11' E 012°06'0 0.0
2015-Jun-27 07:29N 54°11' E 012°06'0 0.0
2015-Jun-27 06:21N 54°11' E 012°06'0 0.0
2015-Jun-27 05:18N 54°11' E 012°06'0 0.1
2015-Jun-27 04:33N 54°11' E 012°06'4 4.3
2015-Jun-27 03:33N 54°14' E 012°03'1110.9
2015-Jun-27 02:34N 54°25' E 011°59'1414.1
2015-Jun-27 01:33N 54°35' E 012°16'6715.3
2015-Jun-26 21:12N 55°03' E 014°02'1015.7
2015-Jun-26 20:33N 55°10' E 014°13'1616.0
2015-Jun-26 19:33N 55°24' E 014°29'1515.4
2015-Jun-26 18:33N 55°32' E 014°52'1615.6
2015-Jun-26 17:33N 55°39' E 015°16'1515.4
2015-Jun-26 16:33N 55°47' E 015°40'1915.8
2015-Jun-26 15:22N 55°56' E 016°09'214 9.8
2015-Jun-25 17:32N 59°20' E 018°12'3 3.5
2015-Jun-25 16:33N 59°19' E 018°06'0 0.0
2015-Jun-25 15:33N 59°19' E 018°06'0 0.0
2015-Jun-25 14:33N 59°19' E 018°06'0 0.0
2015-Jun-25 13:28N 59°19' E 018°06'0 0.0
2015-Jun-25 12:33N 59°19' E 018°06'0 0.0
2015-Jun-25 11:33N 59°19' E 018°06'0 0.0
2015-Jun-25 10:33N 59°19' E 018°06'0 0.0
2015-Jun-25 09:33N 59°19' E 018°06'0 0.0
2015-Jun-25 08:33N 59°19' E 018°06'0 0.0
2015-Jun-25 07:33N 59°19' E 018°06'  

Dump ship's entire track history